SBBRSBCY

Guest
Details From SBBR - Brasilia Presidente Juscelino Kubitsch
To SBCY - Marechal Rondon
Flight Number -
Tags Decoded
Created
Modified
Stats Distance 474 nm / 877 km
Max Altitude 0 ft / 0 m
Waypoints 2
Social Downloads 1
Likes 0
Share VATSIM

Download

Looking for another format? Having issues loading an existing format? Contact us
Advertisement - Login to hide

Notes

Decoded

Route

SBBR SBCY

ID Type Via Altitude Latitude Longitude Leg Dist Tot Dist Heading (true) Name
O SBBR APT - 0 ft / 0 m -15.86350˚ -47.92758˚ - 0 nm - -
O SBCY APT - 0 ft / 0 m -15.64372˚ -56.12163˚ 473 nm 473 nm 270° / 273° -

Altitude Profile

Advertisement - Login to hide

Weather


0- 5 10 15 20 25 30 35+ Temperature / ° C

Clouds and Precipitation
Forecast for 2017-12-13 12:00 UTC. Updated a few seconds ago

Ground ~20,000 ft ~40,000 ft Winds

SBBR

Details ICAO SBBR (BSB)
Name Brasilia Presidente Juscelino Kubitsch
Region Brazil
Timezone America/Sao_Paulo (UTC-2.0)
Stats Elevation 3,479 ft / 1,060 m (AMSL)
Location -15.871101° -47.918626°
Runways 2
Magnetic Variation 21.549° W

METAR

SBBR 130700Z 17002KT 9999 -RA FEW009 SCT030 OVC080 18/17 Q1016

Decode

TAF

TAF SBBR 130200Z 1306/1406 10002KT 7000 SCT008 BKN020 TN18/1310Z TX26/1316Z PROB30 1306/1312 4000 RA BKN005 BECMG 1313/1315 11004KT 9999 BKN020 FEW030TCU PROB30 1317/1321 4000 SHRA BKN025 FEW035TCU RMK PDC

Decode

Departure Runways

ID Width Length Bearing (true) Bearing (mag) Surface Threshold Offset Overrun Length
11L 148 ft / 45 m 10,493 ft / 3,198 m 86.35° 107.90° Asphalt 0 ft / 0 m 200 ft / 61 m
11R 148 ft / 45 m 10,839 ft / 3,304 m 86.00° 107.55° Asphalt 2,635 ft / 803 m 200 ft / 61 m
29L 148 ft / 45 m 10,839 ft / 3,304 m 265.99° 287.54° Asphalt 0 ft / 0 m 200 ft / 61 m
29R 148 ft / 45 m 10,493 ft / 3,198 m 266.34° 287.89° Asphalt 0 ft / 0 m 200 ft / 61 m

SBCY

Details ICAO SBCY (CGB)
Name Marechal Rondon
Region Brazil
Timezone America/Cuiaba (UTC-3.0)
Stats Elevation 609 ft / 186 m (AMSL)
Location -15.652930° -56.116720°
Runways 1
Magnetic Variation 17.397° W

METAR

SBCY 130700Z 31006KT CAVOK 23/22 Q1008

Decode

TAF

TAF TAF SBCY 130400Z 1306/1406 32003KT CAVOK TN21/1310Z TX30/1319Z BECMG 1312/1314 30005KT 9999 SCT025 BECMG 1315/1317 33008KT SCT020 FEW025TCU BECMG 1319/1321 28005KT TS SCT020 FEW025CB BECMG 1323/1401 11005KT FEW020 RMK PCQ

Decode

Destination Runways

ID Width Length Bearing (true) Bearing (mag) Surface Threshold Offset Overrun Length
17 148 ft / 45 m 7,558 ft / 2,304 m 152.83° 170.23° Asphalt 0 ft / 0 m 190 ft / 58 m
35 148 ft / 45 m 7,558 ft / 2,304 m 332.82° 350.22° Asphalt 0 ft / 0 m 190 ft / 58 m

Approach Navaids

Runway Type Ident Frequency Range Bearing (true) Bearing (mag) Slope Elevation
35 Localiser ICB 109.30 MHz 18 nm / 33 km 333.66° 351.05° - 609 ft / 186 m (AMSL)

Popular Alternatives